Time;durP1;ratioP1;P1;durP2;ratioP2;P2;SDS_P1;SDS_P2;PMS_P1;PMS_P2;Temp;Humidity;BMP_temperature;BMP_pressure;BME280_temperature;BME280_humidity;BME280_pressure;Samples;Min_cycle;Max_cycle;Signal;HPM_P1;HPM_P2
2022/10/14 00:01:44;;;;;;;21.13;15.15;;;;;;;;;;5073393;28;20499;-70
2022/10/14 00:04:09;;;;;;;23.25;15.20;;;;;;;;;;5055336;28;20028;-69
2022/10/14 00:06:35;;;;;;;25.15;15.30;;;;;;;;;;5073536;28;20017;-70
2022/10/14 00:09:02;;;;;;;23.10;14.85;;;;;;;;;;5073698;28;20499;-70
2022/10/14 00:15:03;;;;;;;19.90;14.20;;;;;;;;;;5077625;28;20035;-70
2022/10/14 00:17:28;;;;;;;19.77;13.55;;;;;;;;;;5077490;28;20484;-68
2022/10/14 00:19:55;;;;;;;20.85;14.65;;;;;;;;;;5077256;28;20020;-66
2022/10/14 00:22:20;;;;;;;23.73;14.30;;;;;;;;;;5077858;28;20089;-67
2022/10/14 00:24:46;;;;;;;21.13;14.18;;;;;;;;;;5077690;28;20024;-68
2022/10/14 00:27:11;;;;;;;22.83;14.40;;;;;;;;;;5077322;28;20044;-67
2022/10/14 00:29:37;;;;;;;20.02;13.77;;;;;;;;;;5077095;28;20016;-67
2022/10/14 00:32:02;;;;;;;22.42;13.43;;;;;;;;;;5077526;28;20368;-68
2022/10/14 00:34:28;;;;;;;18.38;13.60;;;;;;;;;;5076962;28;20020;-67
2022/10/14 00:36:56;;;;;;;21.02;13.20;;;;;;;;;;5059402;28;20040;-67
2022/10/14 00:39:21;;;;;;;22.45;13.52;;;;;;;;;;5076837;28;20031;-67
2022/10/14 00:41:47;;;;;;;21.05;13.13;;;;;;;;;;5058861;28;20032;-67
2022/10/14 00:44:12;;;;;;;21.67;13.50;;;;;;;;;;5058811;28;20023;-69
2022/10/14 00:46:39;;;;;;;21.85;13.68;;;;;;;;;;5058751;28;20047;-69
2022/10/14 00:49:07;;;;;;;18.48;12.32;;;;;;;;;;5059474;28;20033;-69
2022/10/14 00:51:33;;;;;;;22.30;13.52;;;;;;;;;;5076596;28;20112;-68
2022/10/14 00:53:58;;;;;;;19.75;13.27;;;;;;;;;;5059396;28;20111;-68
2022/10/14 00:56:28;;;;;;;20.15;12.43;;;;;;;;;;5076829;28;20035;-68
2022/10/14 00:58:53;;;;;;;20.27;13.50;;;;;;;;;;5076468;28;20031;-68
2022/10/14 01:01:19;;;;;;;17.77;12.20;;;;;;;;;;5076437;28;20025;-68
2022/10/14 01:03:44;;;;;;;19.02;12.38;;;;;;;;;;5076777;28;20027;-68
2022/10/14 01:06:13;;;;;;;20.42;12.80;;;;;;;;;;5076338;28;20039;-68
2022/10/14 01:08:50;;;;;;;22.50;13.05;;;;;;;;;;5058760;28;20039;-70
2022/10/14 01:11:22;;;;;;;18.50;12.73;;;;;;;;;;5058351;28;20082;-70
2022/10/14 01:13:51;;;;;;;18.58;12.85;;;;;;;;;;5076391;28;20384;-70
2022/10/14 01:16:40;;;;;;;21.45;13.77;;;;;;;;;;5058563;28;20023;-70
2022/10/14 01:19:11;;;;;;;19.58;13.52;;;;;;;;;;5075907;28;20028;-69
2022/10/14 01:22:13;;;;;;;20.70;13.52;;;;;;;;;;5057918;28;20024;-69
2022/10/14 01:24:54;;;;;;;18.05;12.73;;;;;;;;;;5032191;28;20373;-68
2022/10/14 01:27:23;;;;;;;18.83;13.18;;;;;;;;;;5058252;28;20479;-68
2022/10/14 01:30:07;;;;;;;18.67;12.45;;;;;;;;;;5041720;28;20031;-68
2022/10/14 01:32:45;;;;;;;19.80;12.65;;;;;;;;;;5057920;28;20074;-70
2022/10/14 01:35:14;;;;;;;18.98;12.80;;;;;;;;;;5058551;28;20028;-69
2022/10/14 01:37:44;;;;;;;20.60;13.20;;;;;;;;;;5057866;28;20380;-69
2022/10/14 01:40:10;;;;;;;;;;;;;;;;;;5058454;28;20483;-69
2022/10/14 01:42:37;;;;;;;20.58;13.13;;;;;;;;;;5074451;28;19905;-69
2022/10/14 01:45:09;;;;;;;18.85;12.90;;;;;;;;;;5057561;28;20029;-70
2022/10/14 01:47:37;;;;;;;19.08;13.10;;;;;;;;;;5057604;28;20037;-71
2022/10/14 01:50:06;;;;;;;19.35;14.00;;;;;;;;;;5057630;28;20027;-71
2022/10/14 01:52:38;;;;;;;16.02;12.77;;;;;;;;;;5057642;28;20036;-71
2022/10/14 01:55:06;;;;;;;22.27;14.13;;;;;;;;;;5075626;28;20032;-71
2022/10/14 01:57:33;;;;;;;24.13;13.43;;;;;;;;;;5057557;28;20024;-70
2022/10/14 01:59:59;;;;;;;21.27;13.18;;;;;;;;;;5057475;28;20430;-71
2022/10/14 02:02:24;;;;;;;20.75;13.93;;;;;;;;;;5057463;28;20017;-72
2022/10/14 02:04:51;;;;;;;19.67;13.27;;;;;;;;;;5057299;28;20026;-71
2022/10/14 02:07:21;;;;;;;22.42;12.95;;;;;;;;;;5040745;28;20021;-72
2022/10/14 02:09:56;;;;;;;20.20;13.13;;;;;;;;;;5057278;28;20388;-72
2022/10/14 02:12:51;;;;;;;20.83;12.73;;;;;;;;;;5057196;28;20035;-72
2022/10/14 02:15:24;;;;;;;22.67;12.90;;;;;;;;;;5057846;28;20028;-72
2022/10/14 02:18:07;;;;;;;24.60;14.10;;;;;;;;;;5075439;28;20396;-72
2022/10/14 02:20:40;;;;;;;22.55;13.98;;;;;;;;;;5057046;28;20476;-70
2022/10/14 02:23:09;;;;;;;20.83;14.30;;;;;;;;;;5074990;28;20041;-69
2022/10/14 02:25:37;;;;;;;24.20;14.13;;;;;;;;;;5056971;28;20021;-69
2022/10/14 02:28:04;;;;;;;24.63;13.52;;;;;;;;;;5074806;28;20032;-69
2022/10/14 02:30:31;;;;;;;22.88;14.05;;;;;;;;;;5074907;28;20472;-69
2022/10/14 02:32:58;;;;;;;20.35;13.35;;;;;;;;;;5040184;28;20111;-70
2022/10/14 02:35:26;;;;;;;18.83;12.70;;;;;;;;;;5057072;28;20073;-67
2022/10/14 02:37:55;;;;;;;22.10;13.48;;;;;;;;;;5040244;28;20039;-67
2022/10/14 02:40:29;;;;;;;24.05;13.57;;;;;;;;;;5074713;28;20078;-67
2022/10/14 02:42:55;;;;;;;22.50;13.48;;;;;;;;;;5074721;28;20443;-69
2022/10/14 02:45:23;;;;;;;18.63;12.82;;;;;;;;;;5074922;28;20119;-69
2022/10/14 02:47:48;;;;;;;17.30;12.85;;;;;;;;;;5074659;28;20115;-69
2022/10/14 02:50:14;;;;;;;20.25;13.60;;;;;;;;;;5056461;28;20452;-70
2022/10/14 02:52:39;;;;;;;18.88;12.82;;;;;;;;;;5039788;28;20511;-70
2022/10/14 02:55:04;;;;;;;19.92;12.88;;;;;;;;;;5040072;28;20047;-70
2022/10/14 02:57:30;;;;;;;18.80;12.75;;;;;;;;;;5056264;28;20119;-70
2022/10/14 02:59:55;;;;;;;19.20;12.93;;;;;;;;;;5074171;28;20017;-70
2022/10/14 03:02:22;;;;;;;18.95;13.32;;;;;;;;;;5056426;28;20040;-68
2022/10/14 03:04:48;;;;;;;18.92;13.38;;;;;;;;;;5039977;28;20021;-69
2022/10/14 03:07:13;;;;;;;19.58;13.38;;;;;;;;;;5056094;28;20032;-69
2022/10/14 03:09:43;;;;;;;16.90;12.85;;;;;;;;;;5056305;28;20075;-69
2022/10/14 03:12:09;;;;;;;21.55;12.18;;;;;;;;;;5056790;28;20036;-69
2022/10/14 03:14:34;;;;;;;17.45;12.48;;;;;;;;;;5055974;28;20021;-69
2022/10/14 03:17:02;;;;;;;19.63;12.20;;;;;;;;;;5039668;28;20029;-69
2022/10/14 03:19:30;;;;;;;17.95;12.27;;;;;;;;;;5056256;28;20019;-69
2022/10/14 03:21:56;;;;;;;22.48;13.20;;;;;;;;;;5073859;28;20423;-69
2022/10/14 03:24:21;;;;;;;18.88;12.38;;;;;;;;;;5055872;28;20024;-69
2022/10/14 03:26:59;;;;;;;21.92;13.30;;;;;;;;;;5055715;28;20032;-69
2022/10/14 03:29:25;;;;;;;17.92;12.27;;;;;;;;;;5074521;28;20025;-69
2022/10/14 03:32:00;;;;;;;19.45;12.45;;;;;;;;;;5055937;28;20028;-69
2022/10/14 03:34:30;;;;;;;17.55;12.38;;;;;;;;;;5055703;28;20016;-70
2022/10/14 03:37:11;;;;;;;17.90;11.50;;;;;;;;;;5056291;28;20052;-69
2022/10/14 03:39:45;;;;;;;18.13;12.05;;;;;;;;;;5055705;28;20044;-69
2022/10/14 03:42:11;;;;;;;23.73;12.45;;;;;;;;;;5055831;28;20032;-68
2022/10/14 03:44:42;;;;;;;17.75;12.15;;;;;;;;;;5039845;28;20016;-70
2022/10/14 03:47:18;;;;;;;18.85;11.85;;;;;;;;;;5055355;28;20029;-70
2022/10/14 03:49:44;;;;;;;17.85;12.00;;;;;;;;;;5073656;28;20032;-70
2022/10/14 03:52:16;;;;;;;16.92;11.93;;;;;;;;;;5055308;28;20013;-70
2022/10/14 03:54:43;;;;;;;16.40;11.48;;;;;;;;;;5055757;28;20036;-70
2022/10/14 03:57:10;;;;;;;15.50;11.10;;;;;;;;;;5039175;28;20464;-70
2022/10/14 03:59:43;;;;;;;16.08;11.73;;;;;;;;;;5055735;28;20055;-70
2022/10/14 04:02:08;;;;;;;16.33;11.80;;;;;;;;;;5071991;28;20105;-69
2022/10/14 04:04:34;;;;;;;17.00;11.82;;;;;;;;;;5073420;28;20460;-69
2022/10/14 04:07:00;;;;;;;17.17;11.65;;;;;;;;;;5055350;28;20048;-69
2022/10/14 04:09:28;;;;;;;16.20;11.63;;;;;;;;;;5039248;28;20078;-69
2022/10/14 04:11:55;;;;;;;15.55;12.23;;;;;;;;;;5055364;28;20028;-69
2022/10/14 04:14:38;;;;;;;21.08;13.63;;;;;;;;;;5055015;28;20483;-69
2022/10/14 04:17:04;;;;;;;19.85;14.15;;;;;;;;;;5054943;28;20036;-69
2022/10/14 04:19:30;;;;;;;20.70;13.60;;;;;;;;;;5072631;28;20020;-69
2022/10/14 04:21:56;;;;;;;19.65;12.88;;;;;;;;;;5054440;28;20107;-68
2022/10/14 04:24:23;;;;;;;22.45;14.38;;;;;;;;;;5054168;28;20051;-69
2022/10/14 04:26:55;;;;;;;17.17;12.90;;;;;;;;;;5053915;28;20021;-69
2022/10/14 04:29:30;;;;;;;16.85;12.60;;;;;;;;;;5071113;28;20036;-69
2022/10/14 04:32:02;;;;;;;17.50;12.27;;;;;;;;;;5054925;28;20423;-69
2022/10/14 04:34:28;;;;;;;15.63;12.35;;;;;;;;;;5054015;28;20355;-69
2022/10/14 04:36:54;;;;;;;16.05;12.63;;;;;;;;;;5054068;28;20024;-69
2022/10/14 04:39:29;;;;;;;19.55;12.38;;;;;;;;;;5070264;28;20089;-69
2022/10/14 04:41:55;;;;;;;16.98;12.73;;;;;;;;;;5053988;28;20472;-69
2022/10/14 04:44:21;;;;;;;20.08;13.00;;;;;;;;;;5053896;28;20083;-69
2022/10/14 04:46:50;;;;;;;19.38;12.48;;;;;;;;;;5053491;28;20049;-69
2022/10/14 04:49:18;;;;;;;15.40;11.65;;;;;;;;;;5054395;28;20033;-69
2022/10/14 04:51:52;;;;;;;17.85;12.80;;;;;;;;;;5054357;28;20024;-69
2022/10/14 04:54:38;;;;;;;18.85;12.15;;;;;;;;;;5072259;28;20047;-69
2022/10/14 04:57:04;;;;;;;15.85;12.10;;;;;;;;;;5055838;28;20032;-69
2022/10/14 04:59:29;;;;;;;17.08;12.70;;;;;;;;;;5076000;28;20017;-69
2022/10/14 05:02:10;;;;;;;20.75;12.73;;;;;;;;;;5076343;28;20093;-69
2022/10/14 05:04:45;;;;;;;17.40;11.98;;;;;;;;;;5059522;28;20083;-69
2022/10/14 05:07:11;;;;;;;15.32;11.98;;;;;;;;;;5058149;28;20040;-69
2022/10/14 05:09:36;;;;;;;20.75;12.25;;;;;;;;;;5058212;28;20016;-69
2022/10/14 05:12:05;;;;;;;18.02;12.60;;;;;;;;;;5042034;28;20013;-69
2022/10/14 05:14:39;;;;;;;17.88;13.32;;;;;;;;;;5057808;28;20372;-69
2022/10/14 05:17:19;;;;;;;18.25;12.88;;;;;;;;;;5057786;28;20413;-69
2022/10/14 05:19:44;;;;;;;20.58;13.15;;;;;;;;;;5056664;28;20446;-69
2022/10/14 05:22:10;;;;;;;20.33;13.77;;;;;;;;;;5057260;28;20016;-69
2022/10/14 05:24:40;;;;;;;26.02;16.33;;;;;;;;;;5057046;28;20040;-69
2022/10/14 05:27:08;;;;;;;21.98;16.23;;;;;;;;;;5057103;28;20492;-68
2022/10/14 05:29:34;;;;;;;25.95;16.35;;;;;;;;;;5058062;28;20016;-69
2022/10/14 05:32:00;;;;;;;23.92;16.52;;;;;;;;;;5059043;28;20475;-69
2022/10/14 05:34:33;;;;;;;27.60;17.08;;;;;;;;;;5058195;28;20415;-69
2022/10/14 05:37:00;;;;;;;22.73;15.65;;;;;;;;;;5057941;28;20400;-69
2022/10/14 05:39:30;;;;;;;23.25;15.68;;;;;;;;;;5057892;28;20020;-69
2022/10/14 05:41:55;;;;;;;22.92;15.95;;;;;;;;;;5057279;28;20439;-69
2022/10/14 05:44:24;;;;;;;25.00;16.20;;;;;;;;;;5057491;28;20035;-69
2022/10/14 05:46:49;;;;;;;20.25;14.07;;;;;;;;;;5057468;28;20036;-69
2022/10/14 05:49:15;;;;;;;18.92;13.73;;;;;;;;;;5057643;28;20016;-69
2022/10/14 05:51:41;;;;;;;24.05;15.48;;;;;;;;;;5058342;28;20371;-68
2022/10/14 05:54:14;;;;;;;24.48;16.30;;;;;;;;;;5057852;28;20075;-68
2022/10/14 05:56:41;;;;;;;25.13;17.65;;;;;;;;;;5074392;28;20063;-67
2022/10/14 05:59:08;;;;;;;23.73;18.67;;;;;;;;;;5057538;28;20121;-68
2022/10/14 06:01:35;;;;;;;24.95;21.40;;;;;;;;;;5040929;28;20131;-68
2022/10/14 06:04:01;;;;;;;26.05;19.48;;;;;;;;;;5057416;28;20023;-68
2022/10/14 06:06:26;;;;;;;26.50;20.20;;;;;;;;;;5040718;28;20466;-67
2022/10/14 06:08:53;;;;;;;25.55;19.25;;;;;;;;;;5056649;28;20021;-68
2022/10/14 06:11:18;;;;;;;24.50;18.95;;;;;;;;;;5075223;28;20100;-67
2022/10/14 06:13:44;;;;;;;24.27;16.10;;;;;;;;;;5057228;28;20103;-68
2022/10/14 06:16:10;;;;;;;23.33;16.60;;;;;;;;;;5057208;28;20033;-68
2022/10/14 06:18:36;;;;;;;23.83;15.30;;;;;;;;;;5075115;28;20013;-68
2022/10/14 06:21:02;;;;;;;24.20;15.25;;;;;;;;;;5057635;28;20028;-67
2022/10/14 06:23:28;;;;;;;23.65;14.75;;;;;;;;;;5075276;28;20070;-67
2022/10/14 06:25:54;;;;;;;20.67;13.85;;;;;;;;;;5056998;28;20040;-67
2022/10/14 06:28:19;;;;;;;19.80;13.50;;;;;;;;;;5074802;28;20024;-67
2022/10/14 06:30:48;;;;;;;20.10;13.85;;;;;;;;;;5075107;28;20369;-67
2022/10/14 06:33:13;;;;;;;21.30;14.25;;;;;;;;;;5075047;28;20099;-67
2022/10/14 06:35:39;;;;;;;23.70;14.38;;;;;;;;;;5075278;28;20058;-67
2022/10/14 06:38:04;;;;;;;20.38;14.57;;;;;;;;;;5074706;28;20376;-67
2022/10/14 06:40:31;;;;;;;22.65;14.65;;;;;;;;;;5074596;28;20058;-67
2022/10/14 06:42:57;;;;;;;25.00;15.02;;;;;;;;;;5075148;28;20017;-68
2022/10/14 06:45:23;;;;;;;21.50;15.23;;;;;;;;;;5056464;28;20047;-67
2022/10/14 06:47:48;;;;;;;25.05;15.20;;;;;;;;;;5074950;28;20041;-67
2022/10/14 06:50:14;;;;;;;44.65;24.40;;;;;;;;;;5074459;28;20070;-67
2022/10/14 06:52:39;;;;;;;50.00;29.33;;;;;;;;;;5074597;28;20028;-67
2022/10/14 06:55:05;;;;;;;49.15;30.23;;;;;;;;;;5074594;28;20027;-67
2022/10/14 06:57:31;;;;;;;49.97;29.15;;;;;;;;;;5074526;28;20534;-68
2022/10/14 06:59:56;;;;;;;41.85;25.23;;;;;;;;;;5074260;28;20384;-67
2022/10/14 07:02:21;;;;;;;42.88;25.15;;;;;;;;;;5074705;28;20042;-67
2022/10/14 07:04:47;;;;;;;32.45;22.13;;;;;;;;;;5056250;28;20029;-68
2022/10/14 07:07:12;;;;;;;26.77;18.83;;;;;;;;;;5074000;28;20464;-67
2022/10/14 07:09:37;;;;;;;26.05;17.40;;;;;;;;;;5074395;28;20062;-68
2022/10/14 07:12:03;;;;;;;27.02;18.23;;;;;;;;;;5073982;28;20468;-67
2022/10/14 07:14:28;;;;;;;23.42;16.83;;;;;;;;;;5056115;28;20024;-67
2022/10/14 07:16:53;;;;;;;26.98;17.73;;;;;;;;;;5073943;28;20494;-67
2022/10/14 07:19:19;;;;;;;25.70;18.00;;;;;;;;;;5073922;28;20035;-67
2022/10/14 07:21:45;;;;;;;23.10;16.95;;;;;;;;;;5073019;28;20025;-67
2022/10/14 07:24:11;;;;;;;23.67;16.33;;;;;;;;;;5056041;28;20024;-67
2022/10/14 07:26:36;;;;;;;29.42;15.48;;;;;;;;;;5073766;28;20387;-67
2022/10/14 07:29:03;;;;;;;21.85;16.05;;;;;;;;;;5073782;28;20027;-67
2022/10/14 07:31:28;;;;;;;22.73;15.55;;;;;;;;;;5039255;28;20384;-67
2022/10/14 07:33:54;;;;;;;25.02;15.00;;;;;;;;;;5074044;28;20020;-67
2022/10/14 07:36:19;;;;;;;27.02;16.38;;;;;;;;;;5071387;28;20028;-68
2022/10/14 07:38:44;;;;;;;28.10;16.13;;;;;;;;;;5073488;28;20105;-67
2022/10/14 07:41:17;;;;;;;22.02;16.02;;;;;;;;;;5073667;28;20083;-67
2022/10/14 07:43:44;;;;;;;27.30;17.30;;;;;;;;;;5073416;28;20476;-67
2022/10/14 07:46:11;;;;;;;25.75;16.42;;;;;;;;;;5073463;28;20495;-67
2022/10/14 07:48:37;;;;;;;34.05;22.73;;;;;;;;;;5072998;28;20044;-67
2022/10/14 07:51:03;;;;;;;37.88;22.60;;;;;;;;;;5052196;28;20048;-68
2022/10/14 07:53:29;;;;;;;30.30;20.67;;;;;;;;;;5070538;28;20421;-67
2022/10/14 07:55:57;;;;;;;35.45;22.80;;;;;;;;;;5070164;28;20048;-67
2022/10/14 07:58:25;;;;;;;30.52;22.20;;;;;;;;;;5070922;28;20451;-67
2022/10/14 08:00:50;;;;;;;36.20;22.75;;;;;;;;;;5073398;28;20449;-67
2022/10/14 08:03:17;;;;;;;34.63;21.75;;;;;;;;;;5073973;28;20024;-67
2022/10/14 08:05:42;;;;;;;33.38;21.05;;;;;;;;;;5072543;28;20021;-67
2022/10/14 08:08:07;;;;;;;29.02;20.73;;;;;;;;;;5073331;28;20052;-67
2022/10/14 08:10:33;;;;;;;31.38;22.02;;;;;;;;;;5073644;28;20023;-67
2022/10/14 08:12:58;;;;;;;26.67;18.80;;;;;;;;;;5072797;28;20396;-67
2022/10/14 08:15:27;;;;;;;28.33;19.65;;;;;;;;;;5072922;28;20075;-68
2022/10/14 08:17:53;;;;;;;27.52;19.08;;;;;;;;;;5072776;28;20050;-68
2022/10/14 08:20:18;;;;;;;26.10;19.13;;;;;;;;;;5073000;28;20483;-67
2022/10/14 08:22:43;;;;;;;23.38;17.75;;;;;;;;;;5072943;28;20108;-67
2022/10/14 08:25:09;;;;;;;21.05;16.02;;;;;;;;;;5072723;28;20103;-68
2022/10/14 08:27:34;;;;;;;21.17;13.82;;;;;;;;;;5070616;28;20392;-68
2022/10/14 08:29:59;;;;;;;19.83;14.18;;;;;;;;;;5072797;28;20051;-67
2022/10/14 08:32:25;;;;;;;20.33;15.73;;;;;;;;;;5074816;28;20103;-67
2022/10/14 08:34:50;;;;;;;16.45;11.73;;;;;;;;;;5059082;28;20522;-67
2022/10/14 08:37:15;;;;;;;17.58;13.40;;;;;;;;;;5058318;28;20040;-67
2022/10/14 08:39:41;;;;;;;20.45;13.93;;;;;;;;;;5075270;28;20436;-67
2022/10/14 08:42:35;;;;;;;19.35;13.90;;;;;;;;;;5076682;28;20029;-67
2022/10/14 08:45:07;;;;;;;20.77;13.65;;;;;;;;;;5055952;28;20052;-67
2022/10/14 08:47:38;;;;;;;18.15;13.18;;;;;;;;;;5073873;28;20052;-67
2022/10/14 08:50:16;;;;;;;21.90;13.30;;;;;;;;;;5073371;28;20119;-67
2022/10/14 08:52:53;;;;;;;17.42;11.95;;;;;;;;;;5074804;28;20035;-67
2022/10/14 08:55:37;;;;;;;15.85;9.43;;;;;;;;;;5073119;28;20032;-67
2022/10/14 08:58:05;;;;;;;15.90;11.50;;;;;;;;;;5076077;28;20032;-67
2022/10/14 09:00:31;;;;;;;15.93;11.98;;;;;;;;;;5076489;28;20012;-67
2022/10/14 09:02:58;;;;;;;16.05;11.20;;;;;;;;;;5076365;28;20044;-67
2022/10/14 09:05:24;;;;;;;16.05;12.60;;;;;;;;;;5076304;28;20024;-67
2022/10/14 09:07:54;;;;;;;14.80;10.52;;;;;;;;;;5073112;28;20079;-67
2022/10/14 09:10:22;;;;;;;16.77;10.77;;;;;;;;;;5074152;28;20139;-67
2022/10/14 09:12:47;;;;;;;16.60;12.85;;;;;;;;;;5058359;28;20082;-67
2022/10/14 09:15:26;;;;;;;17.55;11.90;;;;;;;;;;5076286;28;20100;-67
2022/10/14 09:18:02;;;;;;;15.32;12.00;;;;;;;;;;5076778;28;20029;-67
2022/10/14 09:20:27;;;;;;;22.48;13.98;;;;;;;;;;5076716;28;20036;-67
2022/10/14 09:23:04;;;;;;;19.40;12.77;;;;;;;;;;5058289;28;20365;-67
2022/10/14 09:25:32;;;;;;;15.82;11.55;;;;;;;;;;5076081;28;20390;-67
2022/10/14 09:27:57;;;;;;;16.33;12.60;;;;;;;;;;5075883;28;20541;-67
2022/10/14 09:30:23;;;;;;;22.08;13.32;;;;;;;;;;5076020;28;20052;-67
2022/10/14 09:32:52;;;;;;;19.48;13.52;;;;;;;;;;5075901;28;20031;-67
2022/10/14 09:35:26;;;;;;;17.63;12.50;;;;;;;;;;5076213;28;20032;-67
2022/10/14 09:37:52;;;;;;;20.48;13.43;;;;;;;;;;5057946;28;20024;-67
2022/10/14 09:40:17;;;;;;;24.02;13.80;;;;;;;;;;5076115;28;20352;-67
2022/10/14 09:42:51;;;;;;;20.42;12.05;;;;;;;;;;5075533;28;20112;-67
2022/10/14 09:45:19;;;;;;;23.65;13.20;;;;;;;;;;5075395;28;20032;-67
2022/10/14 09:47:51;;;;;;;21.17;14.43;;;;;;;;;;5075663;28;20071;-67
2022/10/14 09:50:21;;;;;;;20.58;13.90;;;;;;;;;;5076112;28;20024;-67
2022/10/14 09:52:54;;;;;;;15.73;11.43;;;;;;;;;;5075694;28;20025;-67
2022/10/14 09:55:23;;;;;;;13.85;10.05;;;;;;;;;;5075799;28;20259;-67
2022/10/14 09:57:57;;;;;;;21.88;13.95;;;;;;;;;;5057992;28;20456;-67
2022/10/14 10:00:24;;;;;;;17.60;10.85;;;;;;;;;;5075411;28;20024;-67
2022/10/14 10:02:51;;;;;;;20.08;11.32;;;;;;;;;;5075350;28;20103;-68
2022/10/14 10:05:25;;;;;;;16.45;11.15;;;;;;;;;;5073641;28;20044;-68
2022/10/14 10:08:00;;;;;;;16.58;10.63;;;;;;;;;;5074001;28;20518;-67
2022/10/14 10:10:25;;;;;;;17.92;10.30;;;;;;;;;;5075113;28;20037;-71
2022/10/14 10:12:51;;;;;;;19.98;10.27;;;;;;;;;;5074129;28;20073;-71
2022/10/14 10:15:17;;;;;;;18.85;10.50;;;;;;;;;;5072905;28;20032;-71
2022/10/14 10:17:43;;;;;;;13.63;10.05;;;;;;;;;;5071844;28;20028;-71
2022/10/14 10:20:35;;;;;;;19.75;11.80;;;;;;;;;;5073546;28;20025;-70
2022/10/14 10:23:24;;;;;;;16.80;12.05;;;;;;;;;;5054176;28;20036;-71
2022/10/14 10:25:50;;;;;;;19.15;12.60;;;;;;;;;;5062761;28;20082;-71
2022/10/14 10:28:17;;;;;;;16.85;12.38;;;;;;;;;;5073698;28;20020;-70
2022/10/14 10:30:49;;;;;;;17.10;10.43;;;;;;;;;;5055658;28;20137;-71
2022/10/14 10:33:24;;;;;;;16.20;10.10;;;;;;;;;;5073389;28;20021;-71
2022/10/14 10:36:01;;;;;;;15.27;9.95;;;;;;;;;;5057005;28;20040;-70
2022/10/14 10:38:45;;;;;;;12.43;9.80;;;;;;;;;;5074896;28;20024;-70
2022/10/14 10:41:17;;;;;;;13.48;10.13;;;;;;;;;;5074641;28;20047;-70
2022/10/14 10:43:48;;;;;;;14.98;10.30;;;;;;;;;;5056904;28;20029;-70
2022/10/14 10:46:21;;;;;;;14.13;10.18;;;;;;;;;;5074290;28;20438;-70
2022/10/14 10:48:53;;;;;;;12.38;9.02;;;;;;;;;;5071719;28;20041;-70
2022/10/14 10:51:44;;;;;;;18.17;10.82;;;;;;;;;;5073985;28;20056;-70
2022/10/14 10:54:30;;;;;;;15.40;9.60;;;;;;;;;;5070175;28;20036;-70
2022/10/14 10:57:02;;;;;;;14.32;9.05;;;;;;;;;;5056266;28;20059;-70
2022/10/14 10:59:34;;;;;;;12.82;9.45;;;;;;;;;;5056445;28;20024;-70
2022/10/14 11:02:18;;;;;;;17.55;12.13;;;;;;;;;;5056359;28;20399;-70
2022/10/14 11:04:52;;;;;;;14.43;8.98;;;;;;;;;;5074483;28;20365;-70
2022/10/14 11:13:25;;;;;;;12.88;10.50;;;;;;;;;;5072715;28;20028;-71
2022/10/14 11:16:04;;;;;;;12.45;9.95;;;;;;;;;;5069799;28;20073;-71
2022/10/14 11:18:44;;;;;;;10.98;6.97;;;;;;;;;;5068529;28;20380;-71
2022/10/14 11:21:18;;;;;;;10.93;8.07;;;;;;;;;;5096496;23;20044;-70
2022/10/14 11:27:20;;;;;;;12.93;10.10;;;;;;;;;;5030354;28;20405;-72
2022/10/14 11:29:48;;;;;;;14.57;10.13;;;;;;;;;;5032816;28;20026;-73
2022/10/14 11:32:20;;;;;;;12.88;8.82;;;;;;;;;;5032848;28;20029;-72
2022/10/14 11:34:46;;;;;;;10.60;8.38;;;;;;;;;;5031590;28;20508;-73
2022/10/14 11:37:41;;;;;;;12.13;9.30;;;;;;;;;;5031515;28;20124;-74
2022/10/14 11:40:17;;;;;;;13.10;10.40;;;;;;;;;;5015739;28;20052;-73
2022/10/14 11:42:51;;;;;;;14.05;10.57;;;;;;;;;;5029642;28;20060;-74
2022/10/14 11:45:20;;;;;;;17.80;11.10;;;;;;;;;;5031491;28;20025;-73
2022/10/14 11:47:47;;;;;;;13.35;9.80;;;;;;;;;;5032300;28;20413;-73
2022/10/14 11:50:20;;;;;;;13.77;10.95;;;;;;;;;;5032496;28;20444;-73
2022/10/14 11:52:55;;;;;;;13.27;8.70;;;;;;;;;;5032128;28;20033;-73
2022/10/14 11:55:27;;;;;;;12.98;9.07;;;;;;;;;;5032466;28;20026;-73
2022/10/14 11:57:53;;;;;;;17.33;10.45;;;;;;;;;;5032287;28;20477;-73
2022/10/14 12:03:42;;;;;;;15.80;10.25;;;;;;;;;;5031696;28;20501;-73
2022/10/14 12:06:15;;;;;;;15.63;9.27;;;;;;;;;;5031467;28;20038;-73
2022/10/14 12:08:59;;;;;;;10.85;9.57;;;;;;;;;;5034470;28;20307;-73
2022/10/14 12:11:37;;;;;;;11.70;8.50;;;;;;;;;;5035055;28;20031;-73
2022/10/14 12:14:05;;;;;;;14.02;10.70;;;;;;;;;;5035825;28;20053;-73
2022/10/14 12:16:31;;;;;;;13.43;9.35;;;;;;;;;;5037358;28;20366;-73
2022/10/14 12:18:56;;;;;;;14.18;10.63;;;;;;;;;;5037609;28;20116;-73
2022/10/14 12:21:36;;;;;;;14.80;10.98;;;;;;;;;;5036144;28;20032;-73
2022/10/14 12:24:06;;;;;;;14.95;10.43;;;;;;;;;;5035956;28;20033;-73
2022/10/14 12:26:46;;;;;;;14.07;9.70;;;;;;;;;;5037166;28;20045;-73
2022/10/14 12:29:14;;;;;;;14.35;9.88;;;;;;;;;;5037213;28;20480;-73
2022/10/14 12:31:39;;;;;;;13.52;8.95;;;;;;;;;;5037175;28;20029;-73
2022/10/14 12:34:13;;;;;;;15.93;10.45;;;;;;;;;;5037092;28;20021;-73
2022/10/14 12:36:43;;;;;;;14.85;10.20;;;;;;;;;;5036961;28;20033;-73
2022/10/14 12:39:29;;;;;;;15.88;10.40;;;;;;;;;;5037039;28;20036;-73
2022/10/14 12:42:03;;;;;;;13.85;8.40;;;;;;;;;;5037143;28;20037;-73
2022/10/14 12:44:44;;;;;;;15.18;10.02;;;;;;;;;;5035519;28;20040;-73
2022/10/14 12:47:25;;;;;;;15.70;10.80;;;;;;;;;;5036680;28;20067;-73
2022/10/14 12:49:53;;;;;;;14.48;10.35;;;;;;;;;;5036770;28;20029;-73
2022/10/14 12:52:30;;;;;;;14.43;8.48;;;;;;;;;;5036845;28;20021;-73
2022/10/14 12:54:56;;;;;;;18.73;10.30;;;;;;;;;;5036587;28;20040;-71
2022/10/14 12:57:29;;;;;;;15.95;11.02;;;;;;;;;;5036584;28;20025;-71
2022/10/14 12:59:57;;;;;;;14.85;9.55;;;;;;;;;;5035630;28;20033;-71
2022/10/14 13:02:31;;;;;;;11.57;8.93;;;;;;;;;;5036623;28;20014;-72
2022/10/14 13:04:59;;;;;;;12.25;9.38;;;;;;;;;;5035298;28;20040;-71
2022/10/14 13:07:24;;;;;;;16.13;10.82;;;;;;;;;;5035147;28;20025;-71
2022/10/14 13:09:56;;;;;;;11.52;8.23;;;;;;;;;;5036409;28;20025;-71
2022/10/14 13:12:21;;;;;;;15.18;9.93;;;;;;;;;;5036623;28;20061;-71
2022/10/14 13:15:00;;;;;;;11.73;8.90;;;;;;;;;;5035019;28;20056;-71
2022/10/14 13:17:41;;;;;;;10.88;8.45;;;;;;;;;;5036248;28;20604;-71
2022/10/14 13:20:06;;;;;;;;;;;;;;;;;;5036804;28;20048;-71
2022/10/14 13:22:35;;;;;;;13.97;9.73;;;;;;;;;;5036233;28;20380;-71
2022/10/14 13:25:10;;;;;;;12.27;9.30;;;;;;;;;;5034242;28;20038;-72
2022/10/14 13:27:36;;;;;;;12.27;8.38;;;;;;;;;;5036072;28;20042;-71
2022/10/14 13:30:15;;;;;;;9.35;7.28;;;;;;;;;;5036067;28;20112;-71
2022/10/14 13:32:50;;;;;;;12.32;8.77;;;;;;;;;;5035254;28;20034;-72
2022/10/14 13:35:32;;;;;;;11.20;8.27;;;;;;;;;;5035218;28;20079;-71
2022/10/14 13:38:06;;;;;;;9.48;6.65;;;;;;;;;;5034167;28;20064;-71
2022/10/14 13:40:38;;;;;;;10.88;7.57;;;;;;;;;;5033956;28;20026;-71
2022/10/14 13:43:16;;;;;;;14.73;8.70;;;;;;;;;;5033181;28;20075;-71
2022/10/14 13:45:44;;;;;;;12.15;7.88;;;;;;;;;;5034990;28;20571;-71
2022/10/14 13:48:15;;;;;;;11.23;8.88;;;;;;;;;;5033627;28;20033;-71
2022/10/14 13:50:41;;;;;;;11.68;9.02;;;;;;;;;;5033231;28;20037;-71
2022/10/14 13:53:14;;;;;;;7.60;6.05;;;;;;;;;;5034307;28;20072;-71
2022/10/14 13:55:46;;;;;;;13.27;9.13;;;;;;;;;;5034554;28;20033;-71
2022/10/14 13:58:13;;;;;;;15.25;9.45;;;;;;;;;;5034269;28;20060;-71
2022/10/14 14:00:48;;;;;;;13.85;10.05;;;;;;;;;;5033864;28;20040;-72
2022/10/14 14:03:16;;;;;;;15.38;10.52;;;;;;;;;;5032065;28;20116;-72
2022/10/14 14:05:41;;;;;;;12.30;10.00;;;;;;;;;;5033309;28;20088;-71
2022/10/14 14:08:14;;;;;;;14.95;9.90;;;;;;;;;;5033955;28;20037;-71
2022/10/14 14:10:40;;;;;;;7.60;5.07;;;;;;;;;;5034116;28;20042;-71
2022/10/14 14:13:05;;;;;;;18.08;10.57;;;;;;;;;;5031717;28;20017;-71
2022/10/14 14:15:39;;;;;;;25.17;14.77;;;;;;;;;;5015354;28;20030;-71
2022/10/14 14:18:04;;;;;;;18.77;12.77;;;;;;;;;;5032703;28;20477;-71
2022/10/14 14:20:32;;;;;;;16.27;11.95;;;;;;;;;;5033696;28;20032;-74
2022/10/14 14:22:58;;;;;;;13.48;10.82;;;;;;;;;;5033576;28;20116;-71
2022/10/14 14:25:26;;;;;;;15.57;12.05;;;;;;;;;;5033725;28;20161;-71
2022/10/14 14:27:53;;;;;;;16.42;10.32;;;;;;;;;;5032747;28;20046;-71
2022/10/14 14:30:29;;;;;;;15.43;8.93;;;;;;;;;;5032610;28;20025;-71
2022/10/14 14:33:16;;;;;;;14.95;9.85;;;;;;;;;;5033469;28;20032;-71
2022/10/14 14:35:49;;;;;;;14.52;10.50;;;;;;;;;;5033347;28;20045;-72
2022/10/14 14:38:23;;;;;;;18.52;11.65;;;;;;;;;;5032031;28;20029;-72
2022/10/14 14:40:58;;;;;;;19.42;10.65;;;;;;;;;;5033070;28;20067;-72
2022/10/14 14:43:24;;;;;;;19.13;10.27;;;;;;;;;;5032778;28;20484;-72
2022/10/14 14:45:50;;;;;;;17.27;11.40;;;;;;;;;;5033794;28;20026;-72
2022/10/14 14:48:19;;;;;;;12.80;10.13;;;;;;;;;;5033805;28;20112;-73
2022/10/14 14:50:51;;;;;;;17.42;12.27;;;;;;;;;;5032925;28;20038;-74